Time,TemperatureF,DewpointF,PressureIn,WindDirection,WindDirectionDegrees,WindSpeedMPH,WindSpeedGustMPH,Humidity,HourlyPrecipIn,Conditions,Clouds,dailyrainin,SoftwareType,DateUTC
2013-07-23 00:01:00,68.6,64.9,29.73,SW,225,4.0,4.0,88,0.00,RA,,0.00,WeatherDisplay:10.37,2013-07-23 04:01:00,
2013-07-23 00:03:00,68.6,64.9,29.73,SW,222,4.0,4.0,88,0.00,RA,,0.00,WeatherDisplay:10.37,2013-07-23 04:03:00,
2013-07-23 00:08:00,68.6,64.9,29.73,SW,226,7.0,7.0,88,0.00,RA,,0.00,WeatherDisplay:10.37,2013-07-23 04:08:00,
2013-07-23 00:13:00,68.5,64.8,29.73,SSW,196,6.0,6.0,88,0.00,CLR,,0.00,WeatherDisplay:10.37,2013-07-23 04:13:00,
2013-07-23 00:18:00,68.5,64.8,29.72,SSW,212,4.6,4.6,88,0.00,CLR,,0.00,WeatherDisplay:10.37,2013-07-23 04:18:00,
2013-07-23 00:23:00,68.5,64.8,29.72,WSW,238,7.0,7.0,88,0.00,CLR,,0.00,WeatherDisplay:10.37,2013-07-23 04:23:00,
2013-07-23 00:28:00,68.4,64.7,29.72,SW,227,5.0,5.0,88,0.00,CLR,,0.00,WeatherDisplay:10.37,2013-07-23 04:28:00,
2013-07-23 00:33:00,68.4,64.7,29.72,SSW,205,6.9,6.9,88,0.00,CLR,,0.00,WeatherDisplay:10.37,2013-07-23 04:33:00,
2013-07-23 00:38:00,68.4,64.7,29.72,SW,236,3.5,3.5,88,0.00,CLR,,0.00,WeatherDisplay:10.37,2013-07-23 04:38:00,
2013-07-23 00:43:00,68.4,64.7,29.72,SW,234,5.0,5.0,88,0.00,CLR,,0.00,WeatherDisplay:10.37,2013-07-23 04:43:00,
2013-07-23 00:48:00,68.3,64.6,29.72,WSW,253,7.0,7.0,88,0.00,CLR,,0.00,WeatherDisplay:10.37,2013-07-23 04:48:00,
2013-07-23 00:53:00,68.3,64.6,29.72,SW,229,5.0,5.0,88,0.00,CLR,,0.00,WeatherDisplay:10.37,2013-07-23 04:53:00,
2013-07-23 00:58:00,68.3,64.6,29.72,SW,223,4.0,4.0,88,0.00,CLR,,0.00,WeatherDisplay:10.37,2013-07-23 04:58:00,
2013-07-23 01:03:00,68.2,64.5,29.71,SW,215,7.0,7.0,88,0.00,CLR,,0.00,WeatherDisplay:10.37,2013-07-23 05:03:00,
2013-07-23 01:08:00,68.1,64.4,29.72,SW,224,7.0,7.0,88,0.00,CLR,,0.00,WeatherDisplay:10.37,2013-07-23 05:08:00,
2013-07-23 01:13:00,68.1,64.4,29.72,SW,233,6.9,6.9,88,0.00,CLR,,0.00,WeatherDisplay:10.37,2013-07-23 05:13:00,
2013-07-23 01:18:00,68.0,64.3,29.71,SW,225,7.0,7.0,88,0.00,CLR,,0.00,WeatherDisplay:10.37,2013-07-23 05:18:00,
2013-07-23 01:23:00,68.0,64.3,29.71,West,260,6.9,6.9,88,0.00,CLR,,0.00,WeatherDisplay:10.37,2013-07-23 05:23:00,
2013-07-23 01:28:00,67.9,64.2,29.71,SW,229,9.2,9.2,88,0.00,CLR,,0.00,WeatherDisplay:10.37,2013-07-23 05:28:00,
2013-07-23 01:33:00,67.9,64.2,29.71,SW,235,8.1,8.1,88,0.00,CLR,,0.00,WeatherDisplay:10.37,2013-07-23 05:33:00,
2013-07-23 01:38:00,67.8,64.1,29.71,SW,233,8.1,8.1,88,0.00,CLR,,0.00,WeatherDisplay:10.37,2013-07-23 05:38:00,
2013-07-23 01:43:00,67.7,64.0,29.71,SW,218,7.0,7.0,88,0.00,CLR,,0.00,WeatherDisplay:10.37,2013-07-23 05:43:00,
2013-07-23 01:48:00,67.6,63.9,29.71,WSW,237,7.0,7.0,88,0.00,CLR,,0.00,WeatherDisplay:10.37,2013-07-23 05:48:00,
2013-07-23 01:53:00,67.6,63.9,29.71,WSW,242,7.0,7.0,88,0.00,CLR,,0.00,WeatherDisplay:10.37,2013-07-23 05:53:00,
2013-07-23 01:58:00,67.7,64.0,29.71,WSW,251,7.0,7.0,88,0.00,CLR,,0.00,WeatherDisplay:10.37,2013-07-23 05:58:00,
2013-07-23 02:03:00,67.7,64.0,29.71,SW,229,8.1,8.1,88,0.00,CLR,,0.00,WeatherDisplay:10.37,2013-07-23 06:03:00,
2013-07-23 02:08:00,67.7,64.0,29.72,WSW,242,7.0,7.0,88,0.00,CLR,,0.00,WeatherDisplay:10.37,2013-07-23 06:08:00,
2013-07-23 02:13:00,67.7,64.0,29.72,SW,230,8.1,8.1,88,0.00,CLR,,0.00,WeatherDisplay:10.37,2013-07-23 06:13:00,
2013-07-23 02:18:00,67.8,64.1,29.71,SW,233,7.0,7.0,88,0.00,CLR,,0.00,WeatherDisplay:10.37,2013-07-23 06:18:00,
2013-07-23 02:23:00,67.7,64.0,29.71,SW,235,6.0,6.0,88,0.00,CLR,,0.00,WeatherDisplay:10.37,2013-07-23 06:23:00,
2013-07-23 02:28:00,67.8,64.1,29.71,SW,227,7.0,7.0,88,0.00,CLR,,0.00,WeatherDisplay:10.37,2013-07-23 06:28:00,
2013-07-23 02:33:00,67.7,64.0,29.72,SW,229,8.1,8.1,88,0.00,CLR,,0.00,WeatherDisplay:10.37,2013-07-23 06:33:00,
2013-07-23 02:38:00,67.7,64.0,29.71,SW,234,7.0,7.0,88,0.00,CLR,,0.00,WeatherDisplay:10.37,2013-07-23 06:38:00,
2013-07-23 02:43:00,67.7,64.0,29.71,SW,225,6.0,6.0,88,0.00,CLR,,0.00,WeatherDisplay:10.37,2013-07-23 06:43:00,
2013-07-23 02:48:00,67.7,64.0,29.71,SW,222,7.0,7.0,88,0.00,CLR,,0.00,WeatherDisplay:10.37,2013-07-23 06:48:00,
2013-07-23 02:53:00,67.7,64.0,29.71,SW,225,4.6,4.6,88,0.00,CLR,,0.00,WeatherDisplay:10.37,2013-07-23 06:53:00,
2013-07-23 03:05:00,67.8,64.1,29.70,SW,228,5.0,6.0,88,0.00,CLR,CLR,0.00,WeatherDisplay:10.37,2013-07-23 07:05:00,
2013-07-23 03:10:00,67.8,64.1,29.70,WSW,250,5.8,5.8,88,0.00,CLR,,0.00,WeatherDisplay:10.37,2013-07-23 07:10:00,
2013-07-23 03:15:00,67.9,64.2,29.70,SW,234,9.0,9.0,88,0.00,CLR,,0.00,WeatherDisplay:10.37,2013-07-23 07:15:00,
2013-07-23 03:20:00,67.9,64.2,29.70,WSW,251,8.1,8.1,88,0.01,RA,,0.01,WeatherDisplay:10.37,2013-07-23 07:20:00,
2013-07-23 03:25:00,67.8,64.1,29.70,SW,232,7.0,7.0,88,0.02,RA,,0.02,WeatherDisplay:10.37,2013-07-23 07:25:00,
2013-07-23 03:30:00,67.9,64.2,29.70,SW,231,5.0,5.0,88,0.02,RA,,0.02,WeatherDisplay:10.37,2013-07-23 07:30:00,
2013-07-23 03:35:00,67.9,64.2,29.70,SW,225,7.0,7.0,88,0.02,CLR,,0.02,WeatherDisplay:10.37,2013-07-23 07:35:00,
2013-07-23 03:40:00,67.9,64.2,29.70,SW,226,7.0,7.0,88,0.02,CLR,,0.02,WeatherDisplay:10.37,2013-07-23 07:40:00,
2013-07-23 03:45:00,67.9,64.2,29.70,WSW,249,3.0,6.0,88,0.00,CLR,CLR,0.02,WeatherDisplay:10.37,2013-07-23 07:45:00,
2013-07-23 03:50:00,67.9,64.2,29.70,WSW,255,5.0,5.0,88,0.02,CLR,,0.02,WeatherDisplay:10.37,2013-07-23 07:50:00,
2013-07-23 03:55:00,68.0,64.3,29.70,SW,229,8.0,8.0,88,0.02,CLR,,0.02,WeatherDisplay:10.37,2013-07-23 07:55:00,
2013-07-23 04:00:00,68.0,64.3,29.70,WSW,246,8.1,8.1,88,0.02,CLR,,0.02,WeatherDisplay:10.37,2013-07-23 08:00:00,
2013-07-23 04:05:00,67.9,64.2,29.70,WSW,253,7.0,7.0,88,0.02,CLR,,0.02,WeatherDisplay:10.37,2013-07-23 08:05:00,
2013-07-23 04:10:00,68.0,64.6,29.70,WSW,251,8.0,8.0,89,0.02,CLR,,0.02,WeatherDisplay:10.37,2013-07-23 08:10:00,
2013-07-23 04:15:00,68.0,64.6,29.70,West,261,5.0,5.0,89,0.02,CLR,,0.02,WeatherDisplay:10.37,2013-07-23 08:15:00,
2013-07-23 04:20:00,67.9,64.5,29.69,WSW,242,7.0,7.0,89,0.01,CLR,,0.02,WeatherDisplay:10.37,2013-07-23 08:20:00,
2013-07-23 04:25:00,67.9,64.6,29.69,West,260,3.0,7.0,89,0.00,CLR,CLR,0.02,WeatherDisplay:10.37,2013-07-23 08:25:00,
2013-07-23 04:30:00,67.8,64.1,29.69,West,267,8.1,8.1,88,0.00,CLR,,0.02,WeatherDisplay:10.37,2013-07-23 08:30:00,
2013-07-23 04:35:00,67.7,64.0,29.70,West,269,16.1,16.1,88,0.00,CLR,,0.02,WeatherDisplay:10.37,2013-07-23 08:35:00,
2013-07-23 04:40:00,67.4,63.7,29.70,WSW,241,12.0,12.0,88,0.00,CLR,,0.02,WeatherDisplay:10.37,2013-07-23 08:40:00,
2013-07-23 04:45:00,67.2,63.5,29.70,WNW,285,9.2,9.2,88,0.00,CLR,,0.02,WeatherDisplay:10.37,2013-07-23 08:45:00,
2013-07-23 04:50:00,67.1,63.4,29.70,WSW,254,5.0,5.0,88,0.00,CLR,,0.02,WeatherDisplay:10.37,2013-07-23 08:50:00,
2013-07-23 04:55:00,67.0,63.3,29.70,West,263,9.2,9.2,88,0.00,CLR,,0.02,WeatherDisplay:10.37,2013-07-23 08:55:00,
2013-07-23 05:00:00,66.8,63.1,29.70,West,271,5.0,5.0,88,0.00,CLR,,0.02,WeatherDisplay:10.37,2013-07-23 09:00:00,
2013-07-23 05:05:00,66.9,63.2,29.70,West,277,9.2,9.2,88,0.00,CLR,,0.02,WeatherDisplay:10.37,2013-07-23 09:05:00,
2013-07-23 05:10:00,66.8,63.1,29.69,WSW,250,6.0,6.0,88,0.00,CLR,,0.02,WeatherDisplay:10.37,2013-07-23 09:10:00,
2013-07-23 05:15:00,66.8,63.1,29.69,WNW,298,3.5,3.5,88,0.00,CLR,,0.02,WeatherDisplay:10.37,2013-07-23 09:15:00,
2013-07-23 05:20:00,66.8,63.1,29.69,WSW,252,6.0,6.0,88,0.00,CLR,,0.02,WeatherDisplay:10.37,2013-07-23 09:20:00,
2013-07-23 05:25:00,66.7,63.0,29.70,West,259,7.0,7.0,88,0.00,CLR,,0.02,WeatherDisplay:10.37,2013-07-23 09:25:00,
2013-07-23 05:30:00,66.7,63.0,29.70,West,267,8.0,8.0,88,0.00,CLR,,0.02,WeatherDisplay:10.37,2013-07-23 09:30:00,
2013-07-23 05:35:00,66.7,63.0,29.70,West,263,6.9,6.9,88,0.00,CLR,,0.02,WeatherDisplay:10.37,2013-07-23 09:35:00,
2013-07-23 05:40:00,66.7,63.0,29.70,West,267,4.0,4.0,88,0.00,CLR,,0.02,WeatherDisplay:10.37,2013-07-23 09:40:00,
2013-07-23 05:45:00,66.7,63.0,29.70,West,278,5.0,5.0,88,0.00,CLR,,0.02,WeatherDisplay:10.37,2013-07-23 09:45:00,
2013-07-23 05:50:00,66.6,62.9,29.70,NW,312,12.0,12.0,88,0.00,CLR,,0.02,WeatherDisplay:10.37,2013-07-23 09:50:00,
2013-07-23 05:55:00,66.5,62.8,29.70,West,263,5.0,5.0,88,0.00,CLR,,0.02,WeatherDisplay:10.37,2013-07-23 09:55:00,
2013-07-23 06:00:00,66.4,62.7,29.71,West,273,3.5,3.5,88,0.00,CLR,,0.02,WeatherDisplay:10.37,2013-07-23 10:00:00,
2013-07-23 06:05:00,66.4,62.7,29.70,West,264,4.0,4.0,88,0.00,CLR,,0.02,WeatherDisplay:10.37,2013-07-23 10:05:00,
2013-07-23 06:10:00,66.4,62.7,29.70,WNW,295,6.0,6.0,88,0.00,CLR,,0.02,WeatherDisplay:10.37,2013-07-23 10:10:00,
2013-07-23 06:15:00,66.3,62.7,29.70,West,273,2.0,6.0,88,0.00,CLR,CLR,0.02,WeatherDisplay:10.37,2013-07-23 10:15:00,
2013-07-23 06:20:00,66.3,62.7,29.71,West,271,3.0,6.0,88,0.00,CLR,CLR,0.02,WeatherDisplay:10.37,2013-07-23 10:20:00,
2013-07-23 06:25:00,66.3,62.6,29.71,WSW,253,4.6,4.6,88,0.00,CLR,,0.02,WeatherDisplay:10.37,2013-07-23 10:25:00,
2013-07-23 06:30:00,66.3,62.6,29.71,WNW,296,3.5,3.5,88,0.00,CLR,,0.02,WeatherDisplay:10.37,2013-07-23 10:30:00,
2013-07-23 06:35:00,66.3,62.6,29.71,West,261,6.0,6.0,88,0.00,CLR,,0.02,WeatherDisplay:10.37,2013-07-23 10:35:00,
2013-07-23 06:40:00,66.2,62.5,29.71,WNW,302,0.0,0.0,88,0.00,CLR,,0.02,WeatherDisplay:10.37,2013-07-23 10:40:00,
2013-07-23 06:45:00,66.2,62.5,29.71,WNW,301,5.8,5.8,88,0.00,CLR,,0.02,WeatherDisplay:10.37,2013-07-23 10:45:00,
2013-07-23 06:50:00,66.2,62.5,29.71,WNW,301,0.0,0.0,88,0.00,CLR,,0.02,WeatherDisplay:10.37,2013-07-23 10:50:00,
2013-07-23 06:55:00,66.2,62.5,29.71,WNW,296,0.0,3.0,88,0.00,CLR,CLR,0.02,WeatherDisplay:10.37,2013-07-23 10:55:00,
2013-07-23 07:00:00,66.3,62.6,29.72,West,281,1.2,0.0,88,0.00,CLR,,0.02,WeatherDisplay:10.37,2013-07-23 11:00:00,
2013-07-23 07:05:00,66.3,62.6,29.71,West,281,0.0,0.0,88,0.00,CLR,,0.02,WeatherDisplay:10.37,2013-07-23 11:05:00,
2013-07-23 07:10:00,66.2,62.5,29.72,West,281,1.2,1.2,88,0.00,CLR,,0.02,WeatherDisplay:10.37,2013-07-23 11:10:00,
2013-07-23 07:15:00,66.3,62.6,29.72,West,279,3.0,3.0,88,0.00,CLR,,0.02,WeatherDisplay:10.37,2013-07-23 11:15:00,
2013-07-23 07:20:00,66.4,62.7,29.72,WNW,288,2.0,2.0,88,0.00,CLR,,0.02,WeatherDisplay:10.37,2013-07-23 11:20:00,
2013-07-23 07:25:00,66.4,62.7,29.73,West,268,1.2,0.0,88,0.00,CLR,,0.02,WeatherDisplay:10.37,2013-07-23 11:25:00,
2013-07-23 07:30:00,66.4,62.7,29.73,West,272,2.3,0.0,88,0.00,CLR,,0.02,WeatherDisplay:10.37,2013-07-23 11:30:00,
2013-07-23 07:35:00,66.4,62.7,29.73,West,275,1.2,0.0,88,0.00,CLR,,0.02,WeatherDisplay:10.37,2013-07-23 11:35:00,
2013-07-23 07:40:00,66.5,62.8,29.73,WNW,297,3.0,3.0,88,0.00,CLR,,0.02,WeatherDisplay:10.37,2013-07-23 11:40:00,
2013-07-23 07:45:00,66.7,63.0,29.73,NW,307,4.0,4.0,88,0.00,CLR,,0.02,WeatherDisplay:10.37,2013-07-23 11:45:00,
2013-07-23 07:50:00,66.7,63.0,29.73,WNW,292,1.2,0.0,88,0.00,CLR,,0.02,WeatherDisplay:10.37,2013-07-23 11:50:00,
2013-07-23 07:55:00,66.7,63.0,29.74,WNW,292,1.0,1.0,88,0.00,CLR,,0.02,WeatherDisplay:10.37,2013-07-23 11:55:00,
2013-07-23 08:00:00,66.9,63.2,29.74,WNW,290,0.0,0.0,88,0.00,CLR,,0.02,WeatherDisplay:10.37,2013-07-23 12:00:00,
2013-07-23 08:05:00,66.9,63.2,29.74,WNW,296,2.0,2.0,88,0.00,CLR,,0.02,WeatherDisplay:10.37,2013-07-23 12:05:00,
2013-07-23 08:10:00,67.0,63.3,29.74,NW,306,1.2,0.0,88,0.00,CLR,,0.02,WeatherDisplay:10.37,2013-07-23 12:10:00,
2013-07-23 08:15:00,67.0,63.3,29.74,WNW,300,3.5,3.5,88,0.00,CLR,,0.02,WeatherDisplay:10.37,2013-07-23 12:15:00,
2013-07-23 08:20:00,66.8,63.1,29.74,WNW,293,0.0,0.0,88,0.00,CLR,,0.02,WeatherDisplay:10.37,2013-07-23 12:20:00,
2013-07-23 08:25:00,66.8,63.1,29.74,WNW,297,3.5,0.0,88,0.00,CLR,,0.02,WeatherDisplay:10.37,2013-07-23 12:25:00,
2013-07-23 08:30:00,66.9,63.2,29.74,WNW,289,3.5,3.5,88,0.00,CLR,,0.02,WeatherDisplay:10.37,2013-07-23 12:30:00,
2013-07-23 08:35:00,66.9,63.2,29.74,WNW,289,0.0,0.0,88,0.00,CLR,,0.02,WeatherDisplay:10.37,2013-07-23 12:35:00,
2013-07-23 08:40:00,66.9,63.2,29.74,WNW,289,1.0,0.0,88,0.00,CLR,,0.02,WeatherDisplay:10.37,2013-07-23 12:40:00,
2013-07-23 08:45:00,66.9,62.9,29.74,NW,309,2.3,2.3,87,0.00,CLR,,0.02,WeatherDisplay:10.37,2013-07-23 12:45:00,
2013-07-23 08:50:00,67.1,63.1,29.74,NW,321,1.0,0.0,87,0.00,CLR,,0.02,WeatherDisplay:10.37,2013-07-23 12:50:00,
2013-07-23 08:55:00,67.6,63.6,29.74,West,279,7.0,7.0,87,0.00,CLR,,0.02,WeatherDisplay:10.37,2013-07-23 12:55:00,
2013-07-23 09:00:00,67.7,63.7,29.74,WNW,286,5.0,5.0,87,0.00,CLR,,0.02,WeatherDisplay:10.37,2013-07-23 13:00:00,
2013-07-23 09:05:00,67.6,63.3,29.74,NW,309,3.5,0.0,86,0.00,CLR,,0.02,WeatherDisplay:10.37,2013-07-23 13:05:00,
2013-07-23 09:10:00,67.7,63.4,29.74,WNW,288,1.2,1.2,86,0.00,CLR,,0.02,WeatherDisplay:10.37,2013-07-23 13:10:00,
2013-07-23 09:15:00,68.4,64.0,29.74,West,261,6.0,6.0,86,0.00,CLR,,0.02,WeatherDisplay:10.37,2013-07-23 13:15:00,
2013-07-23 09:20:00,68.7,64.0,29.74,SW,236,9.0,9.0,85,0.00,CLR,,0.02,WeatherDisplay:10.37,2013-07-23 13:20:00,
2013-07-23 09:25:00,68.6,63.6,29.74,West,264,6.0,6.0,84,0.00,CLR,,0.02,WeatherDisplay:10.37,2013-07-23 13:25:00,
2013-07-23 09:30:00,68.8,63.8,29.74,WSW,243,7.0,7.0,84,0.00,CLR,,0.02,WeatherDisplay:10.37,2013-07-23 13:30:00,
2013-07-23 09:35:00,69.4,64.4,29.74,WNW,296,7.0,7.0,84,0.00,CLR,,0.02,WeatherDisplay:10.37,2013-07-23 13:35:00,
2013-07-23 09:40:00,69.7,64.3,29.74,West,263,9.2,9.2,83,0.00,CLR,,0.02,WeatherDisplay:10.37,2013-07-23 13:40:00,
2013-07-23 09:45:00,69.5,64.1,29.74,WSW,240,6.0,6.0,83,0.00,CLR,,0.02,WeatherDisplay:10.37,2013-07-23 13:45:00,
2013-07-23 09:50:00,70.0,64.6,29.74,WSW,252,5.0,7.0,83,0.00,CLR,CLR,0.02,WeatherDisplay:10.37,2013-07-23 13:50:00,
2013-07-23 09:55:00,70.6,64.8,29.74,SW,234,8.0,8.0,82,0.00,CLR,,0.02,WeatherDisplay:10.37,2013-07-23 13:55:00,
2013-07-23 10:00:00,70.7,64.6,29.73,West,265,8.1,8.1,81,0.00,CLR,,0.02,WeatherDisplay:10.37,2013-07-23 14:00:00,
2013-07-23 10:05:00,70.6,64.5,29.73,WNW,292,5.0,5.0,81,0.00,CLR,,0.02,WeatherDisplay:10.37,2013-07-23 14:05:00,
2013-07-23 10:10:00,70.3,63.8,29.73,WSW,253,4.0,4.0,80,0.00,CLR,,0.02,WeatherDisplay:10.37,2013-07-23 14:10:00,
2013-07-23 10:15:00,70.7,64.6,29.73,West,281,4.0,4.0,81,0.00,CLR,,0.02,WeatherDisplay:10.37,2013-07-23 14:15:00,
2013-07-23 10:20:00,71.2,64.0,29.72,NW,315,0.0,0.0,78,0.00,CLR,,0.02,WeatherDisplay:10.37,2013-07-23 14:20:00,
2013-07-23 10:25:00,71.2,64.0,29.73,WNW,290,3.5,3.5,78,0.00,CLR,,0.02,WeatherDisplay:10.37,2013-07-23 14:25:00,
2013-07-23 10:30:00,71.6,63.6,29.73,WNW,291,0.0,1.0,76,0.00,CLR,CLR,0.02,WeatherDisplay:10.37,2013-07-23 14:30:00,
2013-07-23 10:35:00,71.9,64.3,29.72,WSW,244,3.5,3.5,77,0.00,CLR,,0.02,WeatherDisplay:10.37,2013-07-23 14:35:00,
2013-07-23 10:40:00,72.6,65.7,29.73,West,265,5.0,5.0,79,0.00,CLR,,0.02,WeatherDisplay:10.37,2013-07-23 14:40:00,
2013-07-23 10:45:00,72.7,65.1,29.73,SW,232,6.0,6.0,77,0.00,CLR,,0.02,WeatherDisplay:10.37,2013-07-23 14:45:00,
2013-07-23 10:50:00,72.5,64.5,29.73,WSW,258,2.3,2.3,76,0.01,RA,,0.03,WeatherDisplay:10.37,2013-07-23 14:50:00,
2013-07-23 10:55:00,72.1,64.1,29.73,West,272,1.2,0.0,76,0.01,RA,,0.03,WeatherDisplay:10.37,2013-07-23 14:55:00,
2013-07-23 11:00:00,72.8,64.8,29.73,WSW,257,3.5,0.0,76,0.01,,,0.03,WeatherDisplay:10.37,2013-07-23 15:00:00,
2013-07-23 11:05:00,73.6,65.6,29.73,West,269,3.5,3.5,76,0.01,CLR,,0.03,WeatherDisplay:10.37,2013-07-23 15:05:00,
2013-07-23 11:06:00,73.6,65.6,29.73,WNW,288,4.0,4.0,76,0.01,CLR,,0.03,WeatherDisplay:10.37,2013-07-23 15:06:00,
2013-07-23 11:11:00,73.3,64.5,29.73,West,273,3.5,3.5,74,0.01,CLR,,0.03,WeatherDisplay:10.37,2013-07-23 15:11:00,
2013-07-23 11:16:00,72.7,63.9,29.73,West,265,5.0,5.0,74,0.01,CLR,,0.03,WeatherDisplay:10.37,2013-07-23 15:16:00,
2013-07-23 11:21:00,72.7,65.1,29.73,NNW,337,1.2,0.0,77,0.01,CLR,,0.03,WeatherDisplay:10.37,2013-07-23 15:21:00,
2013-07-23 11:26:00,72.9,64.9,29.73,NNW,330,6.0,6.0,76,0.01,CLR,,0.03,WeatherDisplay:10.37,2013-07-23 15:26:00,
2013-07-23 11:31:00,74.7,66.6,29.73,WSW,252,6.0,6.0,76,0.01,CLR,,0.03,WeatherDisplay:10.37,2013-07-23 15:31:00,
2013-07-23 11:36:00,75.1,65.5,29.73,WSW,245,4.6,4.6,72,0.01,CLR,,0.03,WeatherDisplay:10.37,2013-07-23 15:36:00,
2013-07-23 11:41:00,74.5,65.3,29.73,West,277,7.0,7.0,73,0.01,CLR,,0.03,WeatherDisplay:10.37,2013-07-23 15:41:00,
2013-07-23 11:46:00,75.5,66.2,29.73,SW,232,6.0,6.0,73,0.01,CLR,,0.03,WeatherDisplay:10.37,2013-07-23 15:46:00,
2013-07-23 11:51:00,75.7,66.0,29.73,WSW,256,8.1,8.1,72,0.00,CLR,,0.03,WeatherDisplay:10.37,2013-07-23 15:51:00,
2013-07-23 11:56:00,76.2,66.5,29.73,SSW,212,9.2,9.2,72,0.00,CLR,,0.03,WeatherDisplay:10.37,2013-07-23 15:56:00,
2013-07-23 12:01:00,76.0,65.5,29.72,SW,218,6.9,6.9,70,0.00,CLR,,0.03,WeatherDisplay:10.37,2013-07-23 16:01:00,
2013-07-23 12:06:00,75.1,66.6,29.72,WNW,294,1.2,0.0,75,0.00,CLR,,0.03,WeatherDisplay:10.37,2013-07-23 16:06:00,
2013-07-23 12:11:00,75.3,65.6,29.72,NE,46,3.0,3.0,72,0.00,CLR,,0.03,WeatherDisplay:10.37,2013-07-23 16:11:00,
2013-07-23 12:16:00,75.8,65.7,29.72,WSW,242,7.0,7.0,71,0.00,CLR,,0.03,WeatherDisplay:10.37,2013-07-23 16:16:00,
2013-07-23 12:21:00,75.7,66.0,29.72,SW,234,9.2,9.2,72,0.00,CLR,,0.03,WeatherDisplay:10.37,2013-07-23 16:21:00,
2013-07-23 12:26:00,76.7,66.6,29.72,WSW,252,8.1,8.1,71,0.00,CLR,,0.03,WeatherDisplay:10.37,2013-07-23 16:26:00,
2013-07-23 12:31:00,76.5,66.4,29.72,West,259,6.0,6.0,71,0.00,CLR,,0.03,WeatherDisplay:10.37,2013-07-23 16:31:00,
2013-07-23 12:36:00,75.8,64.9,29.73,WNW,300,3.0,3.0,69,0.00,CLR,,0.03,WeatherDisplay:10.37,2013-07-23 16:36:00,
2013-07-23 12:41:00,76.4,66.7,29.73,West,261,9.0,9.0,72,0.00,CLR,,0.03,WeatherDisplay:10.37,2013-07-23 16:41:00,
2013-07-23 12:46:00,77.8,67.2,29.73,WSW,244,14.0,14.0,70,0.00,CLR,,0.03,WeatherDisplay:10.37,2013-07-23 16:46:00,
2013-07-23 12:51:00,77.9,66.9,29.73,West,271,8.1,8.1,69,0.00,CLR,,0.03,WeatherDisplay:10.37,2013-07-23 16:51:00,
2013-07-23 12:56:00,77.2,67.1,29.73,WNW,287,8.1,8.1,71,0.00,CLR,,0.03,WeatherDisplay:10.37,2013-07-23 16:56:00,
2013-07-23 13:01:00,77.4,66.0,29.73,West,281,2.3,2.3,68,0.00,CLR,,0.03,WeatherDisplay:10.37,2013-07-23 17:01:00,
2013-07-23 13:06:00,77.7,67.5,29.73,SSW,201,8.1,8.1,71,0.00,CLR,,0.03,WeatherDisplay:10.37,2013-07-23 17:06:00,
2013-07-23 13:11:00,78.6,66.3,29.72,WSW,254,7.0,7.0,66,0.00,CLR,,0.03,WeatherDisplay:10.37,2013-07-23 17:11:00,
2013-07-23 13:16:00,77.1,65.7,29.73,WSW,257,6.0,6.0,68,0.00,CLR,,0.03,WeatherDisplay:10.37,2013-07-23 17:16:00,
2013-07-23 13:21:00,77.3,68.0,29.73,WSW,254,7.0,7.0,73,0.00,CLR,,0.03,WeatherDisplay:10.37,2013-07-23 17:21:00,
2013-07-23 13:26:00,78.2,66.8,29.73,WSW,254,12.0,12.0,68,0.00,CLR,,0.03,WeatherDisplay:10.37,2013-07-23 17:26:00,
2013-07-23 13:31:00,77.4,66.0,29.73,WSW,254,8.1,8.1,68,0.00,CLR,,0.03,WeatherDisplay:10.37,2013-07-23 17:31:00,
2013-07-23 13:36:00,78.0,67.4,29.73,WSW,252,9.2,9.2,70,0.00,CLR,,0.03,WeatherDisplay:10.37,2013-07-23 17:36:00,
2013-07-23 13:41:00,79.6,68.1,29.72,NW,307,9.2,9.2,68,0.00,CLR,,0.03,WeatherDisplay:10.37,2013-07-23 17:41:00,
2013-07-23 13:46:00,79.2,67.7,29.72,West,263,9.2,9.2,68,0.00,CLR,,0.03,WeatherDisplay:10.37,2013-07-23 17:46:00,
2013-07-23 13:51:00,79.8,67.0,29.72,WSW,257,11.5,11.5,65,0.00,CLR,,0.03,WeatherDisplay:10.37,2013-07-23 17:51:00,
2013-07-23 13:56:00,80.0,68.5,29.71,West,265,9.0,9.0,68,0.00,CLR,,0.03,WeatherDisplay:10.37,2013-07-23 17:56:00,
2013-07-23 14:01:00,80.3,67.5,29.71,SW,230,4.0,4.0,65,0.00,CLR,,0.03,WeatherDisplay:10.37,2013-07-23 18:01:00,
2013-07-23 14:06:00,79.7,67.3,29.71,WSW,238,8.1,8.1,66,0.00,CLR,,0.03,WeatherDisplay:10.37,2013-07-23 18:06:00,
2013-07-23 14:11:00,79.7,69.0,29.71,SW,234,9.0,9.0,70,0.00,CLR,,0.03,WeatherDisplay:10.37,2013-07-23 18:11:00,
2013-07-23 14:17:00,78.8,66.5,29.71,WSW,237,13.0,13.0,66,0.00,CLR,,0.03,WeatherDisplay:10.37,2013-07-23 18:17:00,
2013-07-23 14:22:00,79.0,67.5,29.71,SW,236,17.3,17.3,68,0.00,CLR,,0.03,WeatherDisplay:10.37,2013-07-23 18:22:00,
2013-07-23 14:27:00,80.0,67.6,29.70,SW,224,13.0,13.0,66,0.00,CLR,,0.03,WeatherDisplay:10.37,2013-07-23 18:27:00,
2013-07-23 14:33:00,79.9,67.5,29.71,WSW,256,14.0,14.0,66,0.00,CLR,,0.03,WeatherDisplay:10.37,2013-07-23 18:33:00,
2013-07-23 14:38:00,80.5,68.1,29.71,SW,236,12.0,12.0,66,0.00,CLR,,0.03,WeatherDisplay:10.37,2013-07-23 18:38:00,
2013-07-23 14:44:00,81.1,68.7,29.71,West,262,15.0,15.0,66,0.00,CLR,,0.03,WeatherDisplay:10.37,2013-07-23 18:44:00,
2013-07-23 14:49:00,80.9,66.7,29.71,WSW,241,15.0,15.0,62,0.00,CLR,,0.03,WeatherDisplay:10.37,2013-07-23 18:49:00,
2013-07-23 14:54:00,81.4,68.1,29.71,West,271,7.0,7.0,64,0.00,CLR,,0.03,WeatherDisplay:10.37,2013-07-23 18:54:00,
2013-07-23 15:00:00,81.4,67.6,29.70,West,263,10.0,14.0,63,0.00,CLR,CLR,0.03,WeatherDisplay:10.37,2013-07-23 19:00:00,
2013-07-23 15:05:00,80.9,68.0,29.70,SW,234,16.1,16.1,65,0.00,CLR,,0.03,WeatherDisplay:10.37,2013-07-23 19:05:00,
2013-07-23 15:11:00,81.0,67.2,29.70,WSW,252,17.3,17.3,63,0.00,CLR,,0.03,WeatherDisplay:10.37,2013-07-23 19:11:00,
2013-07-23 15:16:00,80.9,67.6,29.69,WSW,245,12.0,12.0,64,0.00,CLR,,0.03,WeatherDisplay:10.37,2013-07-23 19:16:00,
2013-07-23 15:21:00,80.8,66.6,29.69,NE,38,6.0,6.0,62,0.00,CLR,,0.03,WeatherDisplay:10.37,2013-07-23 19:21:00,
2013-07-23 15:26:00,80.9,67.6,29.69,WSW,243,14.0,14.0,64,0.00,CLR,,0.03,WeatherDisplay:10.37,2013-07-23 19:26:00,
2013-07-23 15:31:00,80.8,67.5,29.69,West,272,12.0,12.0,64,0.00,CLR,,0.03,WeatherDisplay:10.37,2013-07-23 19:31:00,
2013-07-23 15:36:00,81.3,68.0,29.69,WSW,250,11.5,11.5,64,0.00,CLR,,0.03,WeatherDisplay:10.37,2013-07-23 19:36:00,
2013-07-23 15:41:00,81.6,68.7,29.68,WSW,252,14.0,14.0,65,0.00,CLR,,0.03,WeatherDisplay:10.37,2013-07-23 19:41:00,
2013-07-23 15:46:00,81.2,67.9,29.68,West,264,7.0,7.0,64,0.00,CLR,,0.03,WeatherDisplay:10.37,2013-07-23 19:46:00,
2013-07-23 15:51:00,81.0,68.1,29.68,West,264,11.5,11.5,65,0.00,CLR,,0.03,WeatherDisplay:10.37,2013-07-23 19:51:00,
2013-07-23 15:56:00,81.5,68.6,29.67,West,275,8.1,8.1,65,0.00,CLR,,0.03,WeatherDisplay:10.37,2013-07-23 19:56:00,
2013-07-23 16:01:00,81.3,67.0,29.67,West,262,13.0,13.0,62,0.00,CLR,,0.03,WeatherDisplay:10.37,2013-07-23 20:01:00,
2013-07-23 16:06:00,81.2,67.4,29.67,WSW,257,12.0,12.0,63,0.00,CLR,,0.03,WeatherDisplay:10.37,2013-07-23 20:06:00,
2013-07-23 16:11:00,81.1,67.3,29.67,West,270,11.5,11.5,63,0.00,CLR,,0.03,WeatherDisplay:10.37,2013-07-23 20:11:00,
2013-07-23 16:16:00,81.6,68.2,29.66,SW,230,8.1,8.1,64,0.00,CLR,,0.03,WeatherDisplay:10.37,2013-07-23 20:16:00,
2013-07-23 16:21:00,81.9,66.6,29.66,West,264,13.0,13.0,60,0.00,CLR,,0.03,WeatherDisplay:10.37,2013-07-23 20:21:00,
2013-07-23 16:26:00,81.4,67.1,29.66,WSW,244,9.0,9.0,62,0.00,CLR,,0.03,WeatherDisplay:10.37,2013-07-23 20:26:00,
2013-07-23 16:32:00,81.8,67.0,29.66,West,260,12.7,12.7,61,0.00,CLR,,0.03,WeatherDisplay:10.37,2013-07-23 20:32:00,
2013-07-23 16:37:00,81.8,67.0,29.66,WSW,256,8.1,8.1,61,0.00,CLR,,0.03,WeatherDisplay:10.37,2013-07-23 20:37:00,
2013-07-23 16:43:00,81.9,66.2,29.66,WSW,244,10.4,10.4,59,0.00,CLR,,0.03,WeatherDisplay:10.37,2013-07-23 20:43:00,
2013-07-23 16:48:00,81.5,66.3,29.67,West,281,12.0,12.0,60,0.00,CLR,,0.03,WeatherDisplay:10.37,2013-07-23 20:48:00,
2013-07-23 16:53:00,81.3,65.6,29.67,West,264,12.0,12.0,59,0.00,CLR,,0.03,WeatherDisplay:10.37,2013-07-23 20:53:00,
2013-07-23 16:58:00,81.1,65.9,29.67,SW,234,13.0,13.0,60,0.00,CLR,,0.03,WeatherDisplay:10.37,2013-07-23 20:58:00,
2013-07-23 17:03:00,81.2,66.9,29.66,West,269,12.0,12.0,62,0.00,CLR,,0.03,WeatherDisplay:10.37,2013-07-23 21:03:00,
2013-07-23 17:08:00,81.0,66.3,29.67,WSW,242,14.0,14.0,61,0.00,CLR,,0.03,WeatherDisplay:10.37,2013-07-23 21:08:00,
2013-07-23 17:13:00,80.5,66.7,29.66,WNW,292,4.0,4.0,63,0.00,CLR,,0.03,WeatherDisplay:10.37,2013-07-23 21:13:00,
2013-07-23 17:18:00,80.5,66.3,29.67,West,280,9.2,9.2,62,0.00,CLR,,0.03,WeatherDisplay:10.37,2013-07-23 21:18:00,
2013-07-23 17:23:00,80.3,66.6,29.67,West,275,2.3,2.3,63,0.00,CLR,,0.03,WeatherDisplay:10.37,2013-07-23 21:23:00,
2013-07-23 17:28:00,80.0,66.3,29.67,North,355,2.3,2.3,63,0.00,CLR,,0.03,WeatherDisplay:10.37,2013-07-23 21:28:00,
2013-07-23 17:33:00,79.4,65.7,29.67,WNW,300,0.0,0.0,63,0.00,CLR,,0.03,WeatherDisplay:10.37,2013-07-23 21:33:00,
2013-07-23 17:39:00,79.8,67.0,29.67,West,263,7.0,7.0,65,0.00,CLR,,0.03,WeatherDisplay:10.37,2013-07-23 21:39:00,
2013-07-23 17:44:00,80.5,67.6,29.67,WSW,258,8.1,8.1,65,0.00,CLR,,0.03,WeatherDisplay:10.37,2013-07-23 21:44:00,
2013-07-23 17:49:00,80.2,67.4,29.67,SW,236,5.8,5.8,65,0.00,CLR,,0.03,WeatherDisplay:10.37,2013-07-23 21:49:00,
2013-07-23 17:54:00,79.7,66.9,29.67,West,276,6.0,6.0,65,0.00,CLR,,0.03,WeatherDisplay:10.37,2013-07-23 21:54:00,
2013-07-23 17:59:00,79.4,66.6,29.67,SW,236,7.0,7.0,65,0.00,CLR,,0.03,WeatherDisplay:10.37,2013-07-23 21:59:00,
2013-07-23 18:04:00,79.5,67.1,29.66,West,269,8.1,8.1,66,0.00,CLR,,0.03,WeatherDisplay:10.37,2013-07-23 22:04:00,
2013-07-23 18:10:00,79.9,68.0,29.65,SW,234,5.0,5.0,67,0.00,CLR,,0.03,WeatherDisplay:10.37,2013-07-23 22:10:00,
2013-07-23 18:15:00,80.0,67.6,29.66,West,263,5.0,5.0,66,0.00,CLR,,0.03,WeatherDisplay:10.37,2013-07-23 22:15:00,
2013-07-23 18:20:00,79.5,67.6,29.67,WNW,285,0.0,0.0,67,0.00,CLR,,0.03,WeatherDisplay:10.37,2013-07-23 22:20:00,
2013-07-23 18:25:00,78.8,66.9,29.67,North,350,4.0,4.0,67,0.00,CLR,,0.03,WeatherDisplay:10.37,2013-07-23 22:25:00,
2013-07-23 18:30:00,77.8,64.7,29.67,North,359,7.0,13.0,64,0.00,CLR,CLR,0.03,WeatherDisplay:10.37,2013-07-23 22:30:00,
2013-07-23 18:36:00,74.1,61.1,29.67,NNE,19,8.0,8.0,64,0.00,CLR,,0.03,WeatherDisplay:10.37,2013-07-23 22:36:00,
2013-07-23 18:41:00,71.6,60.5,29.68,North,355,4.6,4.6,68,0.00,CLR,,0.03,WeatherDisplay:10.37,2013-07-23 22:41:00,
2013-07-23 18:46:00,70.3,60.1,29.66,North,360,6.9,6.9,70,0.00,CLR,,0.03,WeatherDisplay:10.37,2013-07-23 22:46:00,
2013-07-23 18:51:00,69.5,60.1,29.66,NE,36,8.1,8.1,72,0.00,CLR,,0.03,WeatherDisplay:10.37,2013-07-23 22:51:00,
2013-07-23 18:56:00,68.9,60.3,29.66,NNE,28,8.1,8.1,74,0.00,CLR,,0.03,WeatherDisplay:10.37,2013-07-23 22:56:00,
2013-07-23 19:01:00,68.4,60.2,29.67,NNE,30,5.8,5.8,75,0.00,CLR,,0.03,WeatherDisplay:10.37,2013-07-23 23:01:00,
2013-07-23 19:07:00,67.9,60.4,29.69,SW,215,13.8,13.8,77,0.00,CLR,,0.03,WeatherDisplay:10.37,2013-07-23 23:07:00,
2013-07-23 19:12:00,68.0,60.9,29.70,WSW,241,11.5,11.5,78,0.01,RA,,0.04,WeatherDisplay:10.37,2013-07-23 23:12:00,
2013-07-23 19:17:00,68.0,61.6,29.69,SE,128,3.5,3.5,80,0.01,RA,,0.04,WeatherDisplay:10.37,2013-07-23 23:17:00,
2013-07-23 19:22:00,67.5,61.5,29.68,West,268,1.0,1.0,81,0.03,RA,,0.06,WeatherDisplay:10.37,2013-07-23 23:22:00,
2013-07-23 19:27:00,67.3,61.6,29.70,West,265,12.0,12.0,82,0.04,RA,,0.07,WeatherDisplay:10.37,2013-07-23 23:27:00,
2013-07-23 19:32:00,67.0,61.3,29.71,WSW,254,15.0,15.0,82,0.04,RA,,0.07,WeatherDisplay:10.37,2013-07-23 23:32:00,
2013-07-23 19:37:00,66.7,61.0,29.70,WSW,238,7.0,7.0,82,0.06,RA,,0.09,WeatherDisplay:10.37,2013-07-23 23:37:00,
2013-07-23 19:43:00,66.2,60.9,29.70,SW,234,12.7,12.7,83,0.07,RA,,0.10,WeatherDisplay:10.37,2013-07-23 23:43:00,
2013-07-23 19:48:00,65.8,60.5,29.69,SSW,204,8.1,8.1,83,0.08,RA,,0.11,WeatherDisplay:10.37,2013-07-23 23:48:00,
2013-07-23 19:54:00,65.5,60.5,29.69,SW,234,11.5,11.5,84,0.08,RA,,0.11,WeatherDisplay:10.37,2013-07-23 23:54:00,
2013-07-23 20:00:00,65.4,60.4,29.69,SW,228,6.0,10.0,84,0.00,CLR,CLR,0.11,WeatherDisplay:10.37,2013-07-24 00:00:00,
2013-07-23 20:05:00,65.2,60.6,29.69,WSW,248,7.0,7.0,85,0.08,CLR,,0.11,WeatherDisplay:10.37,2013-07-24 00:05:00,
2013-07-23 20:10:00,65.2,60.6,29.70,West,260,10.4,10.4,85,0.08,RA,,0.12,WeatherDisplay:10.37,2013-07-24 00:10:00,
2013-07-23 20:15:00,65.1,60.5,29.71,WSW,247,13.0,16.0,85,0.00,,,0.12,WeatherDisplay:10.37,2013-07-24 00:15:00,
2013-07-23 20:20:00,65.1,60.8,29.70,WSW,237,10.0,14.0,86,0.01,RA,RA,0.13,WeatherDisplay:10.37,2013-07-24 00:20:00,
2013-07-23 20:25:00,65.1,60.8,29.69,SW,226,9.0,12.0,86,0.00,RA,RA,0.13,WeatherDisplay:10.37,2013-07-24 00:25:00,
2013-07-23 20:30:00,65.2,60.9,29.67,SW,221,10.0,13.0,86,0.00,,,0.13,WeatherDisplay:10.37,2013-07-24 00:30:00,
2013-07-23 20:35:00,65.2,60.9,29.67,SSW,209,17.0,17.0,86,0.06,RA,,0.14,WeatherDisplay:10.37,2013-07-24 00:35:00,
2013-07-23 20:40:00,65.3,61.0,29.68,WSW,238,8.1,8.1,86,0.04,RA,,0.14,WeatherDisplay:10.37,2013-07-24 00:40:00,
2013-07-23 20:45:00,65.3,61.0,29.67,SSW,200,7.0,7.0,86,0.04,,,0.14,WeatherDisplay:10.37,2013-07-24 00:45:00,
2013-07-23 20:50:00,65.5,61.2,29.67,SSW,210,8.1,8.1,86,0.03,CLR,,0.14,WeatherDisplay:10.37,2013-07-24 00:50:00,
2013-07-23 20:55:00,65.6,61.3,29.67,SW,217,7.0,7.0,86,0.03,CLR,,0.14,WeatherDisplay:10.37,2013-07-24 00:55:00,
2013-07-23 21:00:00,65.7,61.4,29.67,SW,233,6.0,6.0,86,0.03,CLR,,0.14,WeatherDisplay:10.37,2013-07-24 01:00:00,
2013-07-23 21:06:00,65.8,61.8,29.66,SSW,200,7.0,7.0,87,0.02,CLR,,0.14,WeatherDisplay:10.37,2013-07-24 01:06:00,
2013-07-23 21:11:00,65.8,61.5,29.66,WSW,241,4.0,4.0,86,0.02,CLR,,0.14,WeatherDisplay:10.37,2013-07-24 01:11:00,
2013-07-23 21:16:00,65.8,61.5,29.66,SW,232,5.0,5.0,86,0.02,CLR,,0.14,WeatherDisplay:10.37,2013-07-24 01:16:00,
2013-07-23 21:21:00,65.8,61.5,29.66,SSW,200,6.0,6.0,86,0.01,CLR,,0.14,WeatherDisplay:10.37,2013-07-24 01:21:00,
2013-07-23 21:26:00,65.7,61.4,29.66,SSW,200,5.0,5.0,86,0.01,CLR,,0.14,WeatherDisplay:10.37,2013-07-24 01:26:00,
2013-07-23 21:31:00,65.7,61.4,29.66,SW,219,4.0,4.0,86,0.01,CLR,,0.14,WeatherDisplay:10.37,2013-07-24 01:31:00,
2013-07-23 21:36:00,65.7,61.4,29.66,SW,222,3.5,3.5,86,0.00,CLR,,0.14,WeatherDisplay:10.37,2013-07-24 01:36:00,
2013-07-23 21:41:00,65.6,61.3,29.66,SW,223,0.0,0.0,86,0.00,CLR,,0.14,WeatherDisplay:10.37,2013-07-24 01:41:00,
2013-07-23 21:46:00,65.6,61.3,29.67,SW,222,2.3,2.3,86,0.00,CLR,,0.14,WeatherDisplay:10.37,2013-07-24 01:46:00,
2013-07-23 21:51:00,65.5,61.2,29.67,SW,223,1.0,1.0,86,0.00,CLR,,0.14,WeatherDisplay:10.37,2013-07-24 01:51:00,
2013-07-23 21:56:00,65.2,60.9,29.67,North,5,0.0,0.0,86,0.00,CLR,,0.14,WeatherDisplay:10.37,2013-07-24 01:56:00,
2013-07-23 22:01:00,65.0,60.7,29.67,North,5,0.0,0.0,86,0.00,CLR,,0.14,WeatherDisplay:10.37,2013-07-24 02:01:00,
2013-07-23 22:06:00,65.1,61.1,29.67,WNW,288,3.5,3.5,87,0.00,CLR,,0.14,WeatherDisplay:10.37,2013-07-24 02:06:00,
2013-07-23 22:11:00,65.2,61.2,29.67,WSW,239,1.2,1.2,87,0.00,CLR,,0.14,WeatherDisplay:10.37,2013-07-24 02:11:00,
2013-07-23 22:17:00,65.0,61.0,29.68,SW,229,5.0,5.0,87,0.00,CLR,,0.14,WeatherDisplay:10.37,2013-07-24 02:17:00,
2013-07-23 22:22:00,64.9,60.9,29.68,SW,229,5.0,5.0,87,0.00,CLR,,0.14,WeatherDisplay:10.37,2013-07-24 02:22:00,
2013-07-23 22:27:00,64.8,60.8,29.68,SW,227,6.0,6.0,87,0.00,CLR,,0.14,WeatherDisplay:10.37,2013-07-24 02:27:00,
2013-07-23 22:32:00,64.7,60.7,29.68,SW,219,8.1,8.1,87,0.00,CLR,,0.14,WeatherDisplay:10.37,2013-07-24 02:32:00,
2013-07-23 22:37:00,64.8,60.8,29.69,WSW,242,9.0,9.0,87,0.00,CLR,,0.14,WeatherDisplay:10.37,2013-07-24 02:37:00,
2013-07-23 22:42:00,64.8,60.8,29.69,SW,231,6.0,6.0,87,0.00,CLR,,0.14,WeatherDisplay:10.37,2013-07-24 02:42:00,
2013-07-23 22:48:00,64.7,60.7,29.69,SW,215,7.0,7.0,87,0.00,CLR,,0.14,WeatherDisplay:10.37,2013-07-24 02:48:00,
2013-07-23 22:53:00,64.7,60.7,29.69,SW,232,6.0,6.0,87,0.00,CLR,,0.14,WeatherDisplay:10.37,2013-07-24 02:53:00,
2013-07-23 22:58:00,64.6,60.6,29.69,SSW,207,7.0,7.0,87,0.00,CLR,,0.14,WeatherDisplay:10.37,2013-07-24 02:58:00,
2013-07-23 23:03:00,64.6,60.6,29.70,SW,218,6.0,6.0,87,0.00,CLR,,0.14,WeatherDisplay:10.37,2013-07-24 03:03:00,
2013-07-23 23:08:00,64.6,60.6,29.70,SSW,210,6.0,6.0,87,0.00,CLR,,0.14,WeatherDisplay:10.37,2013-07-24 03:08:00,
2013-07-23 23:13:00,64.6,60.6,29.70,SW,218,5.0,5.0,87,0.00,CLR,,0.14,WeatherDisplay:10.37,2013-07-24 03:13:00,
2013-07-23 23:18:00,64.6,60.6,29.70,SW,219,5.0,5.0,87,0.00,CLR,,0.14,WeatherDisplay:10.37,2013-07-24 03:18:00,
2013-07-23 23:23:00,64.6,60.6,29.70,SW,229,5.8,5.8,87,0.00,CLR,,0.14,WeatherDisplay:10.37,2013-07-24 03:23:00,
2013-07-23 23:28:00,64.5,60.5,29.70,SW,218,7.0,7.0,87,0.00,CLR,,0.14,WeatherDisplay:10.37,2013-07-24 03:28:00,
2013-07-23 23:33:00,64.5,60.5,29.70,SW,217,5.0,5.0,87,0.00,CLR,,0.14,WeatherDisplay:10.37,2013-07-24 03:33:00,
2013-07-23 23:38:00,64.4,60.4,29.69,SW,236,8.0,8.0,87,0.00,CLR,,0.14,WeatherDisplay:10.37,2013-07-24 03:38:00,
2013-07-23 23:43:00,64.4,60.4,29.69,SW,230,8.1,8.1,87,0.00,CLR,,0.14,WeatherDisplay:10.37,2013-07-24 03:43:00,
2013-07-23 23:48:00,64.3,60.3,29.69,SW,225,7.0,7.0,87,0.00,CLR,,0.14,WeatherDisplay:10.37,2013-07-24 03:48:00,
2013-07-23 23:54:00,64.3,60.3,29.69,SW,229,7.0,7.0,87,0.00,CLR,,0.14,WeatherDisplay:10.37,2013-07-24 03:54:00,
2013-07-23 23:59:00,64.3,60.3,29.70,WSW,252,6.9,6.9,87,0.00,CLR,,0.14,WeatherDisplay:10.37,2013-07-24 03:59:00,